Time;durP1;ratioP1;P1;durP2;ratioP2;P2;SDS_P1;SDS_P2;PMS_P1;PMS_P2;Temp;Humidity;BMP_temperature;BMP_pressure;BME280_temperature;BME280_humidity;BME280_pressure;Samples;Min_cycle;Max_cycle;Signal;HPM_P1;HPM_P2
2022/01/22 00:02:04;;;;;;;2.43;1.60;;;9.60;99.90;;;;;;5025868;28;20981;-80
2022/01/22 00:04:31;;;;;;;3.03;1.30;;;9.60;99.90;;;;;;5039981;28;20769;-81
2022/01/22 00:06:58;;;;;;;2.17;1.27;;;9.60;99.90;;;;;;5039021;28;20229;-80
2022/01/22 00:09:28;;;;;;;2.80;1.43;;;9.60;99.90;;;;;;5036098;28;20248;-79
2022/01/22 00:11:56;;;;;;;2.00;1.17;;;9.60;99.90;;;;;;5052505;28;20226;-80
2022/01/22 00:14:24;;;;;;;2.50;1.30;;;9.60;99.90;;;;;;5045662;28;20225;-79
2022/01/22 00:16:52;;;;;;;2.93;1.20;;;9.60;99.90;;;;;;5024573;28;20568;-79
2022/01/22 00:19:19;;;;;;;2.27;1.30;;;9.60;99.90;;;;;;5042666;28;20230;-80
2022/01/22 00:21:45;;;;;;;2.63;1.10;;;9.60;99.90;;;;;;5039462;28;20238;-80
2022/01/22 00:24:13;;;;;;;2.33;1.20;;;9.60;99.90;;;;;;5056716;28;20665;-80
2022/01/22 00:26:40;;;;;;;4.23;1.60;;;9.60;99.90;;;;;;5048215;28;20813;-80
2022/01/22 00:29:10;;;;;;;3.03;1.30;;;9.60;99.90;;;;;;5067353;28;20826;-80
2022/01/22 00:31:36;;;;;;;4.37;1.57;;;9.50;99.90;;;;;;5046366;28;20321;-80
2022/01/22 00:34:03;;;;;;;2.23;1.50;;;9.50;99.90;;;;;;5039894;28;20712;-80
2022/01/22 00:36:30;;;;;;;3.27;1.20;;;9.50;99.90;;;;;;5024697;28;20237;-80
2022/01/22 00:38:59;;;;;;;2.40;1.43;;;9.50;99.90;;;;;;5041426;28;20595;-80
2022/01/22 00:41:26;;;;;;;2.27;1.17;;;9.50;99.90;;;;;;5056008;28;20692;-80
2022/01/22 00:43:53;;;;;;;3.80;1.50;;;9.50;99.90;;;;;;5037872;28;20926;-80
2022/01/22 00:46:21;;;;;;;4.77;1.60;;;9.50;99.90;;;;;;5046419;28;20214;-80
2022/01/22 00:48:48;;;;;;;5.57;1.70;;;9.50;99.90;;;;;;5023173;28;20610;-80
2022/01/22 00:51:15;;;;;;;3.00;1.20;;;9.50;99.90;;;;;;5037174;28;20340;-80
2022/01/22 00:53:42;;;;;;;3.67;1.50;;;9.50;99.90;;;;;;5031769;28;20234;-80
2022/01/22 00:56:09;;;;;;;3.97;1.43;;;9.50;99.90;;;;;;5025196;28;20236;-80
2022/01/22 00:58:36;;;;;;;3.37;1.40;;;9.50;99.90;;;;;;5039673;28;20317;-80
2022/01/22 01:01:03;;;;;;;5.17;1.50;;;9.50;99.90;;;;;;5051459;28;20311;-80
2022/01/22 01:03:33;;;;;;;4.30;1.40;;;9.50;99.90;;;;;;5024957;28;20222;-79
2022/01/22 01:06:00;;;;;;;3.07;1.70;;;9.50;99.90;;;;;;5042334;28;20231;-80
2022/01/22 01:08:29;;;;;;;3.83;1.60;;;9.50;99.90;;;;;;5027071;28;20230;-80
2022/01/22 01:10:55;;;;;;;3.87;1.63;;;9.50;99.90;;;;;;5042934;28;20647;-80
2022/01/22 01:13:24;;;;;;;3.53;1.60;;;9.50;99.90;;;;;;5021595;28;20770;-80
2022/01/22 01:16:02;;;;;;;3.23;1.60;;;9.50;99.90;;;;;;5029404;28;20378;-80
2022/01/22 01:32:17;;;;;;;4.83;2.20;;;9.40;99.90;;;;;;4999626;28;20231;-80
2022/01/22 01:34:45;;;;;;;3.93;1.90;;;9.40;99.90;;;;;;5035998;28;20268;-80
2022/01/22 01:37:16;;;;;;;5.17;2.20;;;9.40;99.90;;;;;;5016643;28;20645;-80
2022/01/22 01:39:44;;;;;;;4.53;2.00;;;9.30;99.90;;;;;;5021536;28;20313;-79
2022/01/22 01:42:15;;;;;;;3.53;2.30;;;9.30;99.90;;;;;;5037913;28;20262;-79
2022/01/22 01:44:44;;;;;;;5.80;2.27;;;9.30;99.90;;;;;;5046759;28;20241;-80
2022/01/22 01:47:18;;;;;;;6.37;2.13;;;9.40;99.90;;;;;;5020409;28;20230;-80
2022/01/22 01:49:45;;;;;;;3.10;1.90;;;9.30;99.90;;;;;;5025485;28;20733;-79
2022/01/22 01:52:37;;;;;;;3.40;2.03;;;9.30;99.90;;;;;;5027322;28;20711;-80
2022/01/22 01:55:11;;;;;;;5.30;2.50;;;9.30;99.90;;;;;;5026111;28;20631;-80
2022/01/22 01:57:39;;;;;;;7.40;2.60;;;9.30;99.90;;;;;;5019891;28;20226;-79
2022/01/22 02:00:14;;;;;;;6.53;2.63;;;9.30;99.90;;;;;;5039712;28;20223;-80
2022/01/22 02:02:44;;;;;;;7.57;2.50;;;9.30;99.90;;;;;;5046353;28;20226;-80
2022/01/22 02:05:14;;;;;;;5.00;2.40;;;9.30;99.90;;;;;;5021988;28;21266;-80
2022/01/22 02:07:44;;;;;;;6.43;2.77;;;9.30;99.90;;;;;;5037829;28;20298;-80
2022/01/22 02:10:20;;;;;;;4.90;2.40;;;9.30;99.90;;;;;;5052244;28;20309;-80
2022/01/22 02:13:40;;;;;;;6.20;2.53;;;9.40;99.90;;;;;;5034294;28;20674;-80
2022/01/22 02:24:18;;;;;;;7.73;3.00;;;9.30;99.90;;;;;;5021449;28;20292;-79
2022/01/22 02:26:49;;;;;;;7.07;2.87;;;9.30;99.90;;;;;;5052112;28;20218;-79
2022/01/22 02:29:20;;;;;;;5.73;2.80;;;9.30;99.90;;;;;;5024122;28;20223;-79
2022/01/22 02:32:25;;;;;;;6.53;2.87;;;9.30;99.90;;;;;;5029231;28;20236;-79
2022/01/22 02:34:55;;;;;;;8.20;3.50;;;9.30;99.90;;;;;;5024202;28;20238;-79
2022/01/22 02:37:29;;;;;;;8.33;3.63;;;9.30;99.90;;;;;;5026132;28;20220;-79
2022/01/22 02:40:03;;;;;;;9.40;3.37;;;9.30;99.90;;;;;;5040359;28;20734;-79
2022/01/22 02:42:33;;;;;;;7.63;3.30;;;9.30;99.90;;;;;;5025346;28;20230;-80
2022/01/22 02:45:03;;;;;;;9.20;3.23;;;9.30;99.90;;;;;;5025034;28;20303;-79
2022/01/22 02:47:30;;;;;;;9.70;3.77;;;9.30;99.90;;;;;;5022237;28;20237;-79
2022/01/22 02:49:57;;;;;;;9.37;3.43;;;9.30;99.90;;;;;;5039937;28;20229;-79
2022/01/22 02:52:25;;;;;;;11.23;3.60;;;9.40;99.90;;;;;;5054436;28;20775;-79
2022/01/22 02:54:53;;;;;;;9.03;3.13;;;9.30;99.90;;;;;;5042008;28;20309;-79
2022/01/22 02:57:20;;;;;;;10.93;3.63;;;9.40;99.90;;;;;;5039003;28;20264;-79
2022/01/22 02:59:53;;;;;;;9.13;3.60;;;9.40;99.90;;;;;;5062702;28;20233;-80
2022/01/22 03:02:19;;;;;;;8.87;3.73;;;9.40;99.90;;;;;;5053544;28;20234;-79
2022/01/22 03:04:46;;;;;;;8.67;3.30;;;9.40;99.90;;;;;;5036541;28;20251;-80
2022/01/22 03:07:13;;;;;;;9.67;3.50;;;9.40;99.90;;;;;;5023802;28;20229;-80
2022/01/22 03:09:44;;;;;;;12.73;3.80;;;9.40;99.90;;;;;;5022893;28;20234;-78
2022/01/22 03:12:43;;;;;;;14.53;3.93;;;9.40;99.90;;;;;;5024312;28;20923;-79
2022/01/22 03:15:32;;;;;;;7.37;3.20;;;9.40;99.90;;;;;;5044178;28;20761;-79
2022/01/22 03:18:03;;;;;;;10.07;3.40;;;9.40;99.90;;;;;;5052229;28;20257;-79
2022/01/22 03:28:57;;;;;;;6.10;3.20;;;9.40;99.90;;;;;;5056091;28;20271;-79
2022/01/22 03:31:25;;;;;;;8.63;3.30;;;9.40;99.90;;;;;;5021142;28;24392;-79
2022/01/22 03:33:51;;;;;;;8.90;3.53;;;9.40;99.90;;;;;;5037701;28;20279;-78
2022/01/22 03:36:19;;;;;;;6.33;2.90;;;9.40;99.90;;;;;;5028270;28;21025;-80
2022/01/22 03:38:46;;;;;;;7.77;3.23;;;9.40;99.90;;;;;;5030202;28;20266;-79
2022/01/22 03:41:14;;;;;;;8.90;3.67;;;9.40;99.90;;;;;;5037017;28;20263;-81
2022/01/22 03:43:44;;;;;;;7.77;3.30;;;9.40;99.90;;;;;;5040145;28;20308;-80
2022/01/22 03:46:11;;;;;;;10.10;3.20;;;9.40;99.90;;;;;;5019967;28;20229;-80
2022/01/22 03:48:37;;;;;;;12.53;3.47;;;9.40;99.90;;;;;;5024587;28;20229;-80
2022/01/22 03:51:05;;;;;;;7.53;3.60;;;9.50;99.90;;;;;;5023238;28;20313;-80
2022/01/22 03:53:32;;;;;;;8.90;3.50;;;9.50;99.90;;;;;;5025295;28;20260;-79
2022/01/22 03:56:03;;;;;;;9.53;4.07;;;9.50;99.90;;;;;;5024309;28;20224;-81
2022/01/22 03:58:51;;;;;;;10.53;4.33;;;9.50;99.90;;;;;;5051006;28;21036;-81
2022/01/22 04:02:12;;;;;;;9.47;3.73;;;9.50;99.90;;;;;;5043199;28;20242;-79
2022/01/22 04:04:47;;;;;;;9.20;4.07;;;9.50;99.90;;;;;;5024765;28;20222;-81
2022/01/22 04:07:48;;;;;;;10.73;3.77;;;9.40;99.90;;;;;;5026239;28;20256;-79
2022/01/22 04:10:17;;;;;;;14.20;3.80;;;9.50;99.90;;;;;;5032057;28;20309;-79
2022/01/22 04:12:50;;;;;;;9.80;3.77;;;9.50;99.90;;;;;;5026549;28;20287;-79
2022/01/22 04:15:23;;;;;;;12.33;4.10;;;9.50;99.90;;;;;;5046918;28;20345;-79
2022/01/22 04:26:11;;;;;;;12.23;4.17;;;9.40;99.90;;;;;;5043637;28;20221;-80
2022/01/22 04:28:38;;;;;;;11.03;4.00;;;9.50;99.90;;;;;;5043771;28;20596;-79
2022/01/22 04:31:06;;;;;;;9.80;3.67;;;9.50;99.90;;;;;;5045994;28;20234;-78
2022/01/22 04:33:33;;;;;;;9.37;4.10;;;9.40;99.90;;;;;;5020041;28;20242;-79
2022/01/22 04:36:00;;;;;;;8.90;3.90;;;9.40;99.90;;;;;;5043758;28;20871;-79
2022/01/22 04:38:26;;;;;;;11.87;4.03;;;9.40;99.90;;;;;;5041199;28;20312;-80
2022/01/22 04:40:53;;;;;;;9.00;3.60;;;9.40;99.90;;;;;;5048879;28;22064;-79
2022/01/22 04:43:20;;;;;;;10.47;4.00;;;9.40;99.90;;;;;;5049667;28;20230;-78
2022/01/22 04:45:55;;;;;;;5.93;3.47;;;9.40;99.90;;;;;;5055275;28;20878;-79
2022/01/22 04:48:40;;;;;;;6.60;3.77;;;9.40;99.90;;;;;;5023675;28;20868;-79
2022/01/22 04:56:40;;;;;;;11.77;4.60;;;9.40;99.90;;;;;;5022761;28;20232;-79
2022/01/22 04:59:07;;;;;;;10.57;4.10;;;9.50;99.90;;;;;;5042193;28;20315;-79
2022/01/22 05:01:33;;;;;;;9.33;4.27;;;9.40;99.90;;;;;;5027717;28;20952;-79
2022/01/22 05:04:16;;;;;;;11.67;6.97;;;9.40;99.90;;;;;;5027818;28;20233;-79
2022/01/22 05:07:04;;;;;;;10.43;4.10;;;9.40;99.90;;;;;;5025512;28;20903;-79
2022/01/22 05:09:53;;;;;;;10.10;4.10;;;9.40;99.90;;;;;;5044482;28;20225;-79
2022/01/22 05:12:20;;;;;;;9.17;4.53;;;9.40;99.90;;;;;;5026320;28;20224;-79
2022/01/22 05:14:47;;;;;;;9.43;4.00;;;9.50;99.90;;;;;;5027729;28;20239;-79
2022/01/22 05:17:14;;;;;;;11.10;4.00;;;9.40;99.90;;;;;;5030270;28;20234;-78
2022/01/22 05:19:53;;;;;;;9.20;4.20;;;9.40;99.90;;;;;;5035723;28;20707;-78
2022/01/22 05:22:35;;;;;;;7.47;3.67;;;9.40;99.90;;;;;;5025394;28;20230;-79
2022/01/22 05:25:06;;;;;;;8.00;3.80;;;9.40;99.90;;;;;;5031839;28;20248;-79
2022/01/22 05:36:54;;;;;;;13.47;5.83;;;9.40;99.90;;;;;;5023276;28;20239;-79
2022/01/22 05:37:00;;;;;;;13.57;4.83;;;9.40;99.90;;;;;;5030102;28;20807;-79
2022/01/22 05:39:29;;;;;;;10.60;4.80;;;9.40;99.90;;;;;;5023841;28;20238;-80
2022/01/22 05:41:57;;;;;;;8.83;3.90;;;9.50;99.90;;;;;;5044749;28;21055;-79
2022/01/22 05:44:24;;;;;;;10.67;4.57;;;9.50;99.90;;;;;;5037213;28;20260;-80
2022/01/22 05:46:52;;;;;;;11.50;4.10;;;9.40;99.90;;;;;;5053502;28;20266;-80
2022/01/22 05:49:20;;;;;;;11.80;4.70;;;9.50;99.90;;;;;;5034157;28;20233;-79
2022/01/22 05:51:50;;;;;;;9.33;4.13;;;9.50;99.90;;;;;;5033236;28;20237;-79
2022/01/22 05:54:49;;;;;;;38.53;18.17;;;9.50;99.90;;;;;;5038444;28;20805;-78
2022/01/22 06:00:03;;;;;;;8.20;4.47;;;9.50;99.90;;;;;;5032575;28;20301;-80
2022/01/22 06:02:33;;;;;;;10.93;4.20;;;9.50;99.90;;;;;;5058554;28;20226;-84
2022/01/22 06:05:02;;;;;;;12.50;4.13;;;9.50;99.90;;;;;;5026430;28;20226;-81
2022/01/22 06:07:32;;;;;;;12.20;4.63;;;9.50;99.90;;;;;;5063843;28;20234;-80
2022/01/22 06:10:15;;;;;;;11.77;4.47;;;9.50;99.90;;;;;;5034124;28;20238;-81
2022/01/22 06:12:46;;;;;;;13.00;5.20;;;9.50;99.90;;;;;;5029311;28;20234;-81
2022/01/22 06:15:15;;;;;;;13.47;4.73;;;9.50;99.90;;;;;;5027685;28;20230;-81
2022/01/22 06:18:15;;;;;;;12.27;4.73;;;9.50;99.90;;;;;;5021385;28;20321;-83
2022/01/22 06:20:43;;;;;;;12.10;5.33;;;9.60;99.90;;;;;;5030475;28;20306;-82
2022/01/22 06:23:12;;;;;;;8.57;4.97;;;9.60;99.90;;;;;;5032695;28;20309;-83
2022/01/22 06:25:39;;;;;;;13.63;5.50;;;9.60;99.90;;;;;;5039791;28;20493;-83
2022/01/22 06:28:07;;;;;;;15.03;5.30;;;9.60;99.90;;;;;;5036133;28;20234;-82
2022/01/22 06:30:34;;;;;;;10.43;5.43;;;9.60;99.90;;;;;;5032689;28;20273;-83
2022/01/22 06:33:02;;;;;;;12.60;5.70;;;9.60;99.90;;;;;;5031140;28;20233;-82
2022/01/22 06:35:29;;;;;;;21.23;6.10;;;9.60;99.90;;;;;;5032705;28;20321;-82
2022/01/22 06:37:59;;;;;;;13.63;5.93;;;9.60;99.90;;;;;;5028257;28;20716;-82
2022/01/22 06:43:49;;;;;;;11.30;5.60;;;9.60;99.90;;;;;;5043350;28;20295;-81
2022/01/22 06:46:23;;;;;;;13.07;5.90;;;9.60;99.90;;;;;;5030090;28;20229;-81
2022/01/22 06:49:03;;;;;;;15.53;6.00;;;9.60;99.90;;;;;;5028155;28;20226;-81
2022/01/22 06:51:41;;;;;;;14.27;5.73;;;9.60;99.90;;;;;;5042701;28;20226;-82
2022/01/22 06:54:10;;;;;;;12.77;5.40;;;9.60;99.90;;;;;;5030857;28;20576;-82
2022/01/22 06:56:38;;;;;;;15.43;6.47;;;9.60;99.90;;;;;;5029329;28;20254;-81
2022/01/22 06:59:11;;;;;;;18.30;6.83;;;9.60;99.90;;;;;;5026802;28;20253;-81
2022/01/22 07:01:40;;;;;;;14.30;5.93;;;9.60;99.90;;;;;;5035771;28;20875;-81
2022/01/22 07:04:16;;;;;;;12.40;6.13;;;9.60;99.90;;;;;;5027393;28;20563;-81
2022/01/22 07:06:55;;;;;;;14.63;6.07;;;9.60;99.90;;;;;;5064423;28;20229;-81
2022/01/22 07:09:22;;;;;;;15.10;6.40;;;9.60;99.90;;;;;;5030835;28;20925;-81
2022/01/22 07:11:51;;;;;;;17.33;6.83;;;9.60;99.90;;;;;;5034775;28;20218;-81
2022/01/22 07:14:18;;;;;;;15.80;6.23;;;9.70;99.90;;;;;;5030256;28;20266;-82
2022/01/22 07:16:48;;;;;;;9.93;5.93;;;9.70;99.90;;;;;;5034136;28;20313;-81
2022/01/22 07:19:27;;;;;;;13.57;6.40;;;9.60;99.90;;;;;;5024406;28;20229;-81
2022/01/22 07:22:09;;;;;;;11.20;6.50;;;9.70;99.90;;;;;;5025113;28;20233;-81
2022/01/22 07:24:49;;;;;;;15.90;6.57;;;9.70;99.90;;;;;;5025746;28;20231;-82
2022/01/22 07:27:18;;;;;;;18.90;7.27;;;9.70;99.90;;;;;;5028980;28;20222;-82
2022/01/22 07:29:46;;;;;;;14.20;6.50;;;9.70;99.90;;;;;;5041518;28;20637;-82
2022/01/22 07:32:24;;;;;;;15.37;8.03;;;9.60;99.90;;;;;;5051828;28;20552;-81
2022/01/22 07:34:51;;;;;;;23.63;8.23;;;9.60;99.90;;;;;;5024603;28;20233;-82
2022/01/22 07:37:21;;;;;;;28.00;8.40;;;9.60;99.90;;;;;;5021804;28;20772;-81
2022/01/22 07:39:48;;;;;;;18.27;7.40;;;9.70;99.90;;;;;;5026915;28;20294;-81
2022/01/22 07:42:44;;;;;;;17.53;8.57;;;9.70;99.90;;;;;;5024332;28;20338;-81
2022/01/22 07:45:29;;;;;;;72.27;12.13;;;9.70;99.90;;;;;;5036698;28;20229;-81
2022/01/22 07:48:06;;;;;;;20.97;8.57;;;9.70;99.90;;;;;;5017773;28;20242;-81
2022/01/22 07:51:06;;;;;;;15.23;8.03;;;9.60;99.90;;;;;;5037664;28;20229;-80
2022/01/22 07:53:32;;;;;;;16.13;8.57;;;9.60;99.90;;;;;;5023425;28;20221;-80
2022/01/22 07:56:05;;;;;;;15.57;8.93;;;9.60;99.90;;;;;;5033859;28;20224;-82
2022/01/22 07:58:33;;;;;;;16.03;8.50;;;9.60;99.90;;;;;;5034387;28;20320;-81
2022/01/22 08:01:00;;;;;;;11.00;7.63;;;9.60;99.90;;;;;;5056268;28;20773;-81
2022/01/22 08:03:33;;;;;;;11.73;7.40;;;9.60;99.90;;;;;;5055768;28;20231;-82
2022/01/22 08:06:18;;;;;;;10.50;6.70;;;9.60;99.90;;;;;;5051778;28;20240;-81
2022/01/22 08:09:14;;;;;;;11.23;6.73;;;9.50;99.90;;;;;;5009989;28;20348;-80
2022/01/22 08:12:06;;;;;;;81.33;10.10;;;9.60;99.90;;;;;;5027335;28;20237;-81
2022/01/22 08:14:35;;;;;;;32.77;6.87;;;9.50;99.90;;;;;;5025150;28;20241;-81
2022/01/22 08:17:02;;;;;;;76.57;9.70;;;9.60;99.90;;;;;;5025782;28;20222;-84
2022/01/22 08:19:33;;;;;;;24.37;6.63;;;9.60;99.90;;;;;;5058987;28;20230;-85
2022/01/22 08:22:01;;;;;;;8.67;5.37;;;9.50;99.90;;;;;;5061031;28;20244;-84
2022/01/22 08:24:46;;;;;;;17.97;5.97;;;9.50;99.90;;;;;;5055219;28;20251;-79
2022/01/22 08:27:20;;;;;;;12.80;5.00;;;9.50;99.90;;;;;;5063540;28;20223;-82
2022/01/22 08:29:49;;;;;;;15.97;5.30;;;9.50;99.90;;;;;;5029696;28;20257;-82
2022/01/22 08:32:34;;;;;;;17.07;4.93;;;9.50;99.90;;;;;;5027679;28;20577;-82
2022/01/22 08:37:45;;;;;;;23.33;5.07;;;9.50;99.90;;;;;;5008943;28;20228;-81
2022/01/22 08:40:13;;;;;;;7.67;4.03;;;9.50;99.90;;;;;;5037804;28;20725;-82
2022/01/22 08:42:40;;;;;;;16.00;4.20;;;9.50;99.90;;;;;;5056330;28;20233;-82
2022/01/22 08:45:09;;;;;;;31.93;5.40;;;9.50;99.90;;;;;;5047320;28;20323;-82
2022/01/22 08:47:37;;;;;;;6.30;3.53;;;9.60;99.90;;;;;;5027438;28;20237;-82
2022/01/22 08:50:05;;;;;;;6.53;3.60;;;9.60;99.90;;;;;;5035812;28;20938;-82
2022/01/22 08:52:35;;;;;;;9.63;4.67;;;9.60;99.90;;;;;;5050406;28;20295;-82
2022/01/22 08:55:03;;;;;;;16.13;4.43;;;9.60;99.90;;;;;;5043347;28;20253;-82
2022/01/22 08:57:30;;;;;;;5.47;3.40;;;9.60;99.90;;;;;;5043295;28;20335;-81
2022/01/22 09:00:06;;;;;;;17.43;4.93;;;9.60;99.90;;;;;;5024622;28;20234;-82
2022/01/22 09:02:37;;;;;;;7.67;3.60;;;9.70;99.90;;;;;;5030967;28;20242;-82
2022/01/22 09:05:31;;;;;;;21.13;4.80;;;9.70;99.90;;;;;;5050785;28;20315;-83
2022/01/22 09:08:27;;;;;;;11.03;3.33;;;9.80;99.90;;;;;;5044967;28;20258;-82
2022/01/22 09:11:12;;;;;;;6.50;3.43;;;9.80;99.90;;;;;;5051622;28;20227;-82
2022/01/22 09:13:58;;;;;;;15.70;5.07;;;9.80;99.90;;;;;;5041285;28;20324;-81
2022/01/22 09:16:30;;;;;;;22.30;5.07;;;9.80;99.90;;;;;;5035376;28;20239;-82
2022/01/22 09:19:05;;;;;;;8.97;4.23;;;9.80;99.90;;;;;;5029637;28;20233;-82
2022/01/22 09:21:33;;;;;;;6.67;4.47;;;9.80;99.90;;;;;;5024760;28;20234;-83
2022/01/22 09:24:00;;;;;;;12.07;4.23;;;9.90;99.90;;;;;;5037140;28;20254;-82
2022/01/22 09:26:29;;;;;;;9.40;4.67;;;9.90;99.90;;;;;;5036722;28;20230;-82
2022/01/22 09:28:58;;;;;;;20.17;4.80;;;9.90;99.90;;;;;;5026172;28;20296;-82
2022/01/22 09:31:25;;;;;;;10.20;4.03;;;9.90;99.90;;;;;;5030094;28;20257;-82
2022/01/22 09:33:55;;;;;;;6.97;3.90;;;9.90;99.90;;;;;;5068116;28;20241;-82
2022/01/22 09:36:39;;;;;;;10.70;4.33;;;9.90;99.90;;;;;;5028592;28;20309;-82
2022/01/22 09:39:40;;;;;;;11.20;4.33;;;9.90;99.90;;;;;;5043848;28;20285;-82
2022/01/22 09:42:39;;;;;;;8.10;3.07;;;10.00;99.90;;;;;;5007246;28;20235;-82
2022/01/22 09:45:22;;;;;;;10.13;4.00;;;10.00;99.90;;;;;;5037989;28;20233;-82
2022/01/22 09:48:06;;;;;;;17.93;3.90;;;10.10;99.90;;;;;;5025573;28;20233;-82
2022/01/22 09:50:55;;;;;;;9.57;3.40;;;10.00;99.90;;;;;;5033523;28;20226;-82
2022/01/22 09:53:47;;;;;;;7.10;3.30;;;10.10;99.90;;;;;;5025934;28;21216;-82
2022/01/22 09:56:46;;;;;;;8.10;3.30;;;10.10;99.90;;;;;;5033358;28;20298;-82
2022/01/22 09:59:26;;;;;;;9.87;3.70;;;10.20;99.90;;;;;;5034866;28;20234;-82
2022/01/22 10:02:13;;;;;;;5.90;2.80;;;10.20;99.90;;;;;;5027218;28;20778;-82
2022/01/22 10:04:45;;;;;;;12.43;3.50;;;10.20;99.90;;;;;;5038860;28;20235;-81
2022/01/22 10:07:30;;;;;;;7.33;3.20;;;10.20;99.90;;;;;;5049935;28;20233;-82
2022/01/22 10:10:21;;;;;;;9.47;3.50;;;10.30;99.90;;;;;;5035079;28;20235;-82
2022/01/22 10:13:07;;;;;;;9.90;3.77;;;10.30;99.90;;;;;;5053713;28;20225;-82
2022/01/22 10:15:35;;;;;;;9.40;3.70;;;10.40;99.90;;;;;;5044981;28;20611;-81
2022/01/22 10:18:06;;;;;;;9.30;3.97;;;10.30;99.90;;;;;;5034687;28;20227;-82
2022/01/22 10:20:36;;;;;;;6.97;3.93;;;10.40;99.90;;;;;;5036011;28;20325;-78
2022/01/22 10:23:08;;;;;;;10.53;3.93;;;10.30;99.90;;;;;;5024110;28;20229;-79
2022/01/22 10:25:42;;;;;;;8.73;3.87;;;10.30;99.90;;;;;;5024582;28;20266;-80
2022/01/22 10:28:14;;;;;;;8.70;3.80;;;10.30;99.90;;;;;;5025637;28;20228;-83
2022/01/22 10:30:44;;;;;;;5.40;3.27;;;10.40;99.90;;;;;;5037809;28;20231;-83
2022/01/22 10:33:28;;;;;;;9.03;3.40;;;10.40;99.90;;;;;;5028875;28;20231;-83
2022/01/22 10:36:30;;;;;;;7.33;3.23;;;10.40;99.90;;;;;;4976863;28;20307;-82
2022/01/22 10:39:26;;;;;;;7.77;2.97;;;10.40;99.90;;;;;;5018307;28;20322;-82
2022/01/22 10:41:54;;;;;;;4.23;2.43;;;10.40;99.90;;;;;;5032190;28;20241;-82
2022/01/22 10:44:41;;;;;;;8.37;3.33;;;10.40;99.90;;;;;;5039873;28;20707;-82
2022/01/22 10:47:18;;;;;;;9.77;3.27;;;10.40;99.90;;;;;;5049755;28;20231;-81
2022/01/22 10:49:45;;;;;;;9.77;3.70;;;10.50;99.90;;;;;;5050917;28;20326;-83
2022/01/22 10:52:11;;;;;;;6.80;3.23;;;10.50;99.90;;;;;;5044419;28;20237;-83
2022/01/22 10:54:39;;;;;;;7.57;4.13;;;10.60;99.90;;;;;;5050526;28;20738;-83
2022/01/22 10:57:15;;;;;;;8.37;3.70;;;10.60;99.90;;;;;;5037362;28;20590;-83
2022/01/22 10:59:47;;;;;;;8.10;3.47;;;10.60;99.90;;;;;;5045233;28;20621;-82
2022/01/22 11:02:14;;;;;;;7.97;3.57;;;10.70;99.90;;;;;;5047469;28;20224;-83
2022/01/22 11:04:42;;;;;;;5.63;3.50;;;10.70;99.90;;;;;;5053032;28;20234;-83
2022/01/22 11:07:10;;;;;;;8.57;3.80;;;10.70;99.90;;;;;;5033679;28;20610;-83
2022/01/22 11:09:37;;;;;;;7.77;3.43;;;10.80;99.90;;;;;;5038641;28;20235;-83
2022/01/22 11:12:06;;;;;;;6.93;3.10;;;10.80;99.90;;;;;;5035538;28;20314;-83
2022/01/22 11:14:36;;;;;;;6.97;3.03;;;10.80;99.90;;;;;;5044859;28;20234;-83
2022/01/22 11:17:03;;;;;;;6.43;3.13;;;10.80;99.90;;;;;;5036590;28;20862;-82
2022/01/22 11:19:33;;;;;;;5.30;3.50;;;10.70;99.90;;;;;;5054810;28;20226;-82
2022/01/22 11:22:06;;;;;;;6.83;3.07;;;10.70;99.90;;;;;;5065898;28;20223;-82
2022/01/22 11:24:35;;;;;;;6.80;3.43;;;10.70;99.90;;;;;;5031269;28;20238;-83
2022/01/22 11:27:04;;;;;;;5.93;3.40;;;10.70;99.90;;;;;;5031014;28;20810;-82
2022/01/22 11:29:38;;;;;;;9.20;3.80;;;10.70;99.90;;;;;;5044350;28;20255;-83
2022/01/22 11:32:10;;;;;;;5.93;3.47;;;10.70;99.90;;;;;;5031724;28;20231;-82
2022/01/22 11:34:40;;;;;;;9.67;4.67;;;10.70;99.90;;;;;;5029086;28;20239;-83
2022/01/22 11:37:13;;;;;;;8.47;4.23;;;10.70;99.90;;;;;;5038267;28;20224;-83
2022/01/22 11:39:39;;;;;;;8.80;4.50;;;10.70;99.90;;;;;;5042458;28;20243;-83
2022/01/22 11:42:08;;;;;;;7.10;4.37;;;10.70;99.90;;;;;;5051714;28;20313;-82
2022/01/22 11:44:46;;;;;;;6.63;4.90;;;10.70;99.90;;;;;;5034251;28;20605;-83
2022/01/22 11:47:15;;;;;;;8.77;5.30;;;10.80;99.90;;;;;;5030537;28;20231;-83
2022/01/22 11:49:58;;;;;;;8.03;5.30;;;10.80;99.90;;;;;;5039220;28;20234;-83
2022/01/22 11:52:28;;;;;;;6.33;4.73;;;10.80;99.90;;;;;;5049481;28;20692;-83
2022/01/22 11:54:57;;;;;;;7.73;4.90;;;10.80;99.90;;;;;;5062886;28;20226;-82
2022/01/22 11:57:27;;;;;;;4.73;3.90;;;10.90;99.90;;;;;;5055667;28;20260;-83
2022/01/22 12:00:20;;;;;;;6.57;4.70;;;10.90;99.90;;;;;;5051255;28;20583;-83
2022/01/22 12:03:22;;;;;;;6.40;4.60;;;10.90;99.90;;;;;;5040385;28;20231;-83
2022/01/22 12:06:08;;;;;;;24.67;5.83;;;10.90;99.90;;;;;;5027743;28;20735;-83
2022/01/22 12:09:09;;;;;;;9.47;4.20;;;10.90;99.90;;;;;;5046983;28;20777;-82
2022/01/22 12:14:59;;;;;;;4.67;3.30;;;11.00;99.90;;;;;;5041671;28;20857;-83
2022/01/22 12:18:06;;;;;;;4.47;3.33;;;11.00;99.90;;;;;;5019955;28;20240;-83
2022/01/22 12:23:50;;;;;;;4.37;3.37;;;10.90;99.90;;;;;;5051384;28;20215;-82
2022/01/22 12:26:48;;;;;;;4.83;3.30;;;10.90;99.90;;;;;;5050273;28;20251;-83
2022/01/22 12:29:40;;;;;;;4.27;3.60;;;10.80;99.90;;;;;;5029264;28;20557;-82
2022/01/22 12:32:13;;;;;;;4.33;3.50;;;10.90;99.90;;;;;;5049786;28;20226;-83
2022/01/22 12:34:56;;;;;;;3.77;3.17;;;10.80;99.90;;;;;;5061642;28;20252;-82
2022/01/22 12:37:24;;;;;;;5.07;3.33;;;10.80;99.90;;;;;;5030708;28;20216;-82
2022/01/22 12:39:54;;;;;;;3.70;3.30;;;10.80;99.90;;;;;;5028402;28;20239;-83
2022/01/22 12:42:30;;;;;;;5.87;4.10;;;10.80;99.90;;;;;;5038211;28;20645;-82
2022/01/22 12:45:02;;;;;;;5.60;3.97;;;10.80;99.90;;;;;;5036190;28;20282;-83
2022/01/22 12:47:29;;;;;;;7.20;3.50;;;10.80;99.90;;;;;;5026670;28;20272;-82
2022/01/22 12:50:02;;;;;;;4.80;3.80;;;10.90;99.90;;;;;;5044066;28;20351;-82
2022/01/22 12:52:29;;;;;;;5.00;3.60;;;10.80;99.90;;;;;;5024280;28;20233;-83
2022/01/22 12:54:58;;;;;;;4.90;4.10;;;10.80;99.90;;;;;;5029653;28;21229;-83
2022/01/22 12:57:28;;;;;;;6.80;4.33;;;10.80;99.90;;;;;;5028937;28;20743;-82
2022/01/22 13:00:01;;;;;;;8.97;4.50;;;10.80;99.90;;;;;;5026654;28;20749;-83
2022/01/22 13:02:38;;;;;;;12.07;5.77;;;10.80;99.90;;;;;;5034681;28;20314;-82
2022/01/22 13:05:08;;;;;;;11.17;4.83;;;10.80;99.90;;;;;;5018042;28;20227;-86
2022/01/22 13:07:56;;;;;;;4.73;3.57;;;10.80;99.90;;;;;;5042698;28;20926;-82
2022/01/22 13:11:02;;;;;;;4.73;3.30;;;10.80;99.90;;;;;;5058545;28;20223;-81
2022/01/22 13:13:29;;;;;;;4.70;3.40;;;10.70;99.90;;;;;;5045107;28;20329;-82
2022/01/22 13:16:05;;;;;;;5.03;2.93;;;10.60;99.90;;;;;;5020125;28;20223;-81
2022/01/22 13:18:47;;;;;;;4.20;3.17;;;10.60;99.90;;;;;;5029227;28;20238;-81
2022/01/22 13:21:18;;;;;;;3.67;2.50;;;10.60;99.90;;;;;;5047329;28;20296;-81
2022/01/22 13:23:47;;;;;;;3.67;2.80;;;10.60;99.90;;;;;;5026329;28;20312;-81
2022/01/22 13:26:14;;;;;;;6.83;5.87;;;10.50;99.90;;;;;;5052879;28;20582;-80
2022/01/22 13:28:43;;;;;;;4.53;3.10;;;10.50;99.90;;;;;;5028653;28;20238;-81
2022/01/22 13:31:13;;;;;;;5.30;4.50;;;10.50;99.90;;;;;;5045949;28;20828;-81
2022/01/22 13:33:46;;;;;;;5.10;3.37;;;10.50;99.90;;;;;;5027031;28;20246;-81
2022/01/22 13:36:21;;;;;;;3.27;2.97;;;10.50;99.90;;;;;;5045213;28;20701;-81
2022/01/22 13:39:32;;;;;;;3.63;2.30;;;10.50;99.90;;;;;;5040712;28;20229;-80
2022/01/22 13:47:46;;;;;;;3.77;2.10;;;10.60;99.90;;;;;;5045113;28;20234;-81
2022/01/22 13:50:13;;;;;;;2.90;2.30;;;10.60;99.90;;;;;;5060678;28;20266;-83
2022/01/22 13:52:41;;;;;;;3.13;1.87;;;10.60;99.90;;;;;;5036744;28;20721;-81
2022/01/22 13:55:13;;;;;;;4.23;2.03;;;10.60;99.90;;;;;;5056137;28;20820;-81
2022/01/22 13:57:42;;;;;;;2.73;1.90;;;10.70;99.90;;;;;;5053427;28;20786;-80
2022/01/22 14:00:12;;;;;;;2.27;2.03;;;10.60;99.90;;;;;;5047969;28;20344;-81
2022/01/22 14:03:06;;;;;;;3.13;2.07;;;10.60;99.90;;;;;;5052128;28;20236;-81
2022/01/22 14:05:34;;;;;;;3.23;2.27;;;10.60;99.90;;;;;;5025148;28;20271;-81
2022/01/22 14:08:03;;;;;;;2.70;2.00;;;10.60;99.90;;;;;;5029403;28;20262;-82
2022/01/22 14:10:32;;;;;;;2.50;2.23;;;10.60;99.90;;;;;;5050647;28;20239;-80
2022/01/22 14:13:05;;;;;;;3.70;2.40;;;10.60;99.90;;;;;;5041075;28;20227;-80
2022/01/22 14:15:39;;;;;;;3.87;2.43;;;10.60;99.90;;;;;;5041938;28;20269;-80
2022/01/22 14:18:15;;;;;;;2.83;2.10;;;10.60;99.90;;;;;;5029141;28;20280;-80
2022/01/22 14:20:45;;;;;;;1.93;1.77;;;10.60;99.90;;;;;;5042187;28;20251;-80
2022/01/22 14:23:15;;;;;;;2.27;1.80;;;10.60;99.90;;;;;;5044962;28;20235;-80
2022/01/22 14:25:58;;;;;;;2.77;1.93;;;10.50;99.90;;;;;;5027726;28;20236;-80
2022/01/22 14:28:37;;;;;;;3.10;2.00;;;10.50;99.90;;;;;;5052267;28;20235;-80
2022/01/22 14:31:24;;;;;;;1.90;1.70;;;10.50;99.90;;;;;;5044990;28;20227;-80
2022/01/22 14:33:51;;;;;;;2.23;1.90;;;10.50;99.90;;;;;;5024615;28;20732;-81
2022/01/22 14:36:21;;;;;;;2.43;2.07;;;10.50;99.90;;;;;;5038568;28;20233;-81
2022/01/22 14:38:53;;;;;;;2.23;1.97;;;10.50;99.90;;;;;;5045016;28;20311;-80